createdAt,value
2023-04-11T00:02:26.042Z,60.66
2023-04-11T00:12:28.209Z,58.49
2023-04-11T00:22:30.574Z,57.06
2023-04-11T00:32:32.732Z,57.69
2023-04-11T00:42:34.846Z,57.95
2023-04-11T00:52:37.226Z,56.80
2023-04-11T01:02:43.194Z,55.39
2023-04-11T01:12:46.075Z,57.07
2023-04-11T01:22:49.361Z,56.12
2023-04-11T01:32:51.652Z,56.37
2023-04-11T01:42:54.522Z,57.80
2023-04-11T01:52:56.700Z,57.66
2023-04-11T02:02:58.931Z,56.84
2023-04-11T02:13:01.083Z,58.17
2023-04-11T02:23:04.493Z,56.38
2023-04-11T02:33:06.727Z,54.42
2023-04-11T02:43:08.805Z,56.26
2023-04-11T02:53:11.296Z,57.05
2023-04-11T03:03:19.274Z,55.33
2023-04-11T03:13:23.688Z,56.98
2023-04-11T03:23:26.153Z,55.27
2023-04-11T03:33:28.472Z,53.98
2023-04-11T03:43:30.726Z,54.74
2023-04-11T03:53:34.166Z,55.48
2023-04-11T04:03:43.384Z,55.32
2023-04-11T04:13:49.038Z,55.77
2023-04-11T04:23:54.220Z,56.27
2023-04-11T04:34:09.943Z,55.38
2023-04-11T04:44:16.542Z,55.05
2023-04-11T04:54:25.904Z,55.77
2023-04-11T05:04:28.334Z,55.59
2023-04-11T05:14:33.408Z,54.15
2023-04-11T05:24:37.139Z,52.51
2023-04-11T05:34:58.770Z,53.51
2023-04-11T05:45:13.493Z,52.84
2023-04-11T05:55:15.757Z,53.80
2023-04-11T06:05:17.987Z,52.21
2023-04-11T06:15:21.591Z,50.95
2023-04-11T06:25:24.738Z,52.45
2023-04-11T06:35:26.824Z,51.56
2023-04-11T06:45:29.127Z,52.62
2023-04-11T06:55:31.201Z,50.84
2023-04-11T07:05:33.395Z,49.62
2023-04-11T07:15:35.925Z,48.22
2023-04-11T07:25:39.169Z,46.75
2023-04-11T07:35:41.302Z,47.23
2023-04-11T07:45:43.416Z,46.62
2023-04-11T07:55:45.770Z,45.79
2023-04-11T08:05:47.928Z,44.39
2023-04-11T08:15:50.079Z,44.18
2023-04-11T08:25:53.510Z,44.06
2023-04-11T08:35:56.474Z,43.89
2023-04-11T08:46:05.005Z,43.64
2023-04-11T08:56:15.117Z,42.44
2023-04-11T09:06:17.910Z,40.00
2023-04-11T09:16:21.317Z,39.48
2023-04-11T09:26:29.441Z,40.93
2023-04-11T09:36:32.118Z,37.73
2023-04-11T09:46:34.392Z,35.99
2023-04-11T09:56:36.661Z,36.83
2023-04-11T10:06:59.828Z,36.35
2023-04-11T10:17:24.485Z,35.29
2023-04-11T10:27:50.840Z,34.49
2023-04-11T10:37:53.218Z,31.77
2023-04-11T10:48:01.684Z,33.25
2023-04-11T10:58:08.434Z,33.47
2023-04-11T11:08:11.113Z,33.88
2023-04-11T11:18:56.811Z,32.30
2023-04-11T11:29:02.075Z,32.38
2023-04-11T11:39:05.349Z,32.46
2023-04-11T11:49:08.368Z,32.41
2023-04-11T11:59:10.684Z,30.44
2023-04-11T12:09:13.107Z,31.35
2023-04-11T12:19:15.228Z,34.58
2023-04-11T12:29:17.328Z,32.82
2023-04-11T12:39:19.424Z,31.43
2023-04-11T12:49:21.586Z,30.70
2023-04-11T12:59:29.248Z,31.03
2023-04-11T13:09:34.361Z,27.74
2023-04-11T13:19:36.512Z,29.19
2023-04-11T13:29:39.999Z,26.96
2023-04-11T13:39:42.559Z,26.73
2023-04-11T13:49:44.793Z,28.14
2023-04-11T13:59:47.517Z,24.71
2023-04-11T14:09:50.605Z,25.21
2023-04-11T14:19:52.681Z,24.51
2023-04-11T14:29:54.869Z,24.44
2023-04-11T14:39:56.919Z,23.21
2023-04-11T14:49:59.376Z,24.32
2023-04-11T15:00:02.859Z,23.52
2023-04-11T15:10:05.827Z,24.88
2023-04-11T15:20:10.002Z,24.59
2023-04-11T15:30:12.223Z,24.54
2023-04-11T15:40:15.869Z,24.97
2023-04-11T15:50:17.971Z,25.59
2023-04-11T16:00:22.384Z,25.71
2023-04-11T16:10:25.121Z,25.73
2023-04-11T16:20:27.284Z,27.37
2023-04-11T16:30:29.443Z,26.19
2023-04-11T16:40:33.726Z,28.83
2023-04-11T16:50:36.462Z,30.23
2023-04-11T17:00:38.608Z,30.80
2023-04-11T17:10:40.952Z,29.75
2023-04-11T17:20:43.676Z,31.46
2023-04-11T17:30:49.187Z,31.31
2023-04-11T17:40:53.913Z,30.76
2023-04-11T17:50:59.539Z,34.77
2023-04-11T18:01:04.060Z,31.72
2023-04-11T18:11:06.148Z,31.96
2023-04-11T18:21:08.357Z,32.48
2023-04-11T18:31:10.931Z,35.14
2023-04-11T18:41:13.374Z,36.31
2023-04-11T18:51:15.598Z,37.57
2023-04-11T19:01:17.908Z,37.71
2023-04-11T19:11:20.179Z,38.34
2023-04-11T19:21:22.323Z,37.18
2023-04-11T19:31:26.384Z,38.67
2023-04-11T19:41:29.605Z,38.62
2023-04-11T19:51:31.932Z,39.32
2023-04-11T20:01:34.091Z,40.12
2023-04-11T20:11:37.552Z,41.28
2023-04-11T20:21:39.802Z,40.50
2023-04-11T20:31:42.993Z,40.87
2023-04-11T20:41:45.449Z,40.88
2023-04-11T20:51:47.877Z,42.15
2023-04-11T21:01:50.219Z,41.18
2023-04-11T21:11:52.355Z,41.26
2023-04-11T21:21:54.430Z,41.41
2023-04-11T21:31:56.750Z,41.52
2023-04-11T21:42:00.129Z,40.75
2023-04-11T21:52:02.312Z,41.63
2023-04-11T22:02:04.599Z,42.31
2023-04-11T22:12:06.850Z,42.36
2023-04-11T22:22:08.939Z,42.65
2023-04-11T22:32:12.119Z,42.02
2023-04-11T22:42:14.170Z,41.51
2023-04-11T22:52:19.013Z,40.55
2023-04-11T23:02:21.222Z,41.45
2023-04-11T23:12:23.270Z,40.61
2023-04-11T23:22:26.276Z,40.47
2023-04-11T23:32:28.393Z,40.82
2023-04-11T23:42:30.503Z,39.34
2023-04-11T23:52:32.522Z,40.64
